• Join FlightAware (Why Join?)
  • Login
  • US Flag 
08:38PM EDT


 

Airport Tracker/Info


-or-


 

Live Flight TrackerFlight Track Log ✈ EJA604 ✈ 02-May-2013 ✈ KBNA - KFTW

Flight Track Log - Related Links

Times and Time Zones

All times are in EDT time to prevent confusion due to time zone crossing. See the EJA604 flight status page for this flight to view local times or setup timezone preferences in your user account.

Time Position Orientation Groundspeed Altitude Reporting Facility
EDT Latitude Longitude Course Direction KTS MPH feet Rate Location/Type
05:36PM 36.1000 -86.6833 270° West 146 168 1,300  Level Nashville TRACON
05:37PM 36.1153 -86.8079 258° West  Level FlightAware Approximate
05:37PM 36.1000 -86.8000 258° West 275 316 4,000  Level Nashville TRACON
05:38PM 36.1000 -86.8667 270° West 283 326 4,000 1,560 Level Nashville TRACON
05:39PM 36.1100 -86.9658 277° West 289 333 6,900 2,880 Climbing Memphis Center
05:40PM 36.1064 -87.0583 267° West 270 311 10,500 3,480 Climbing Memphis Center
05:41PM 36.1211 -87.1450 282° West 270 311 13,900 3,120 Climbing Memphis Center
05:42PM 36.1836 -87.2225 315° West 266 306 16,800 2,640 Climbing Memphis Center
05:43PM 36.1753 -87.3103 263° West 262 302 19,200 2,160 Climbing Memphis Center
05:44PM 36.1464 -87.4114 251° West 274 315 21,200 1,800 Climbing Memphis Center
05:45PM 36.1136 -87.5181 249° West 320 368 22,900 1,020 Climbing Memphis Center
05:46PM 36.0767 -87.6375 249° West 358 412 23,300 900 Climbing Memphis Center
05:47PM 36.0417 -87.7617 251° West 383 441 24,800 1,320 Climbing Memphis Center
05:48PM 36.0233 -87.8881 260° West 383 441 26,000 1,200 Climbing Memphis Center
05:49PM 36.0072 -88.0169 261° West 383 441 27,300 1,200 Climbing Memphis Center
05:50PM 35.9950 -88.1431 263° West 381 438 28,500 1,200 Climbing Memphis Center
05:51PM 35.9617 -88.2644 251° West 375 432 29,700 720 Climbing Memphis Center
05:52PM 35.9219 -88.3858 248° West 380 437 30,000 120 Climbing Memphis Center
05:53PM 35.8822 -88.5125 249° West 392 451 30,000 600 Level Memphis Center
05:55PM 35.8022 -88.7625 249° West 398 458 31,800 1,200 Climbing Memphis Center
05:56PM 35.7661 -88.8756 249° West 393 452 33,600 1,800 Climbing Memphis Center
05:57PM 35.7319 -88.9889 250° West 373 429 35,400 1,560 Climbing Memphis Center
05:58PM 35.6975 -89.0967 249° West 358 412 36,800 1,200 Climbing Memphis Center
05:59PM 35.6694 -89.2069 253° West 347 399 37,800 900 Climbing Memphis Center
06:00PM 35.6369 -89.3047 248° West 347 399 38,600 780 Climbing Memphis Center
06:01PM 35.6025 -89.4200 250° West 352 405 39,400 660 Climbing Memphis Center
06:02PM 35.5656 -89.5325 248° West 352 405 40,000 300 Climbing Memphis Center
06:03PM 35.5269 -89.6531 249° West 365 420 40,000  Level Memphis Center
06:04PM 35.4878 -89.7783 249° West 381 438 40,000  Level Memphis Center
06:05PM 35.4467 -89.9033 248° West 396 456 40,000  Level Memphis Center
06:06PM 35.4053 -90.0336 249° West 402 463 40,000  Level Memphis Center
06:07PM 35.3639 -90.1636 249° West 408 470 40,000  Level Memphis Center
06:08PM 35.3222 -90.2858 247° West 408 470 40,000  Level Memphis Center
06:09PM 35.2786 -90.4156 248° West 413 475 40,000  Level Memphis Center
06:10PM 35.2325 -90.5553 248° West 413 475 40,000  Level Memphis Center
06:11PM 35.1883 -90.6847 247° West 408 470 40,000  Level Memphis Center
06:12PM 35.1483 -90.8117 249° West 413 475 40,000  Level Memphis Center
06:13PM 35.1061 -90.9408 248° West 413 475 40,000  Level Memphis Center
06:14PM 35.0639 -91.0625 247° West 404 465 40,000  Level Memphis Center
06:15PM 35.0214 -91.1914 248° West 404 465 40,000  Level Memphis Center
06:16PM 34.9767 -91.3150 246° West 404 465 40,000  Level Memphis Center
06:17PM 34.9381 -91.4236 247° West 404 465 40,000  Level Memphis Center
06:18PM 34.8933 -91.5497 247° West 404 465 40,000  Level Memphis Center
06:19PM 34.8481 -91.6881 248° West 409 471 40,000  Level Memphis Center
06:20PM 34.8114 -91.7989 248° West 402 463 40,000  Level Memphis Center
06:21PM 34.7661 -91.9219 246° West 402 463 40,000  Level Memphis Center
06:22PM 34.7206 -92.0475 246° West 402 463 40,000  Level Memphis Center
06:23PM 34.6814 -92.1678 248° West 397 457 40,000  Level Memphis Center
06:24PM 34.6481 -92.2958 252° West 397 457 40,000  Level Memphis Center
06:25PM 34.6083 -92.4364 251° West 397 457 40,000  Level Memphis Center
06:26PM 34.5747 -92.5642 252° West 397 457 40,000  Level Memphis Center
06:27PM 34.5411 -92.6944 253° West 408 470 40,000  Level Memphis Center
06:28PM 34.5075 -92.8194 252° West 408 470 40,000  Level Memphis Center
06:29PM 34.4714 -92.9494 251° West 408 470 40,000  Level Memphis Center
06:30PM 34.4372 -93.0794 252° West 403 464 40,000  Level Memphis Center
06:31PM 34.4031 -93.2092 252° West 403 464 40,000  Level Memphis Center
06:33PM 34.3592 -93.3858 253° West 401 461 40,000  Level Fort Worth Center
06:34PM 34.3256 -93.5083 252° West 401 461 40,000 -180 Level Fort Worth Center
06:35PM 34.2897 -93.6331 251° West 395 455 39,700 -900 Descending Fort Worth Center
06:36PM 34.2578 -93.7525 252° West 388 447 38,200 -1,620 Descending Fort Worth Center
06:37PM 34.2236 -93.8694 251° West 378 435 36,500 -1,140 Descending Fort Worth Center
06:38PM 34.1894 -93.9939 252° West 383 441 36,000 -300 Descending Fort Worth Center
06:39PM 34.1847 -94.1297 268° West 388 447 36,000  Level Fort Worth Center
06:40PM 34.1881 -94.2625 272° West 394 453 36,000  Level Fort Worth Center
06:41PM 34.1933 -94.3931 273° West 399 459 36,000 -720 Level Fort Worth Center
06:42PM 34.1714 -94.5192 258° West 393 452 34,600 -1,560 Descending Fort Worth Center
06:43PM 34.1364 -94.6408 251° West 386 444 32,900 -1,740 Descending Fort Worth Center
06:44PM 34.1036 -94.7647 252° West 392 451 31,200 -1,740 Descending Fort Worth Center
06:45PM 34.0689 -94.8911 252° West 392 451 29,500 -1,740 Descending Fort Worth Center
06:46PM 34.0336 -95.0125 251° West 392 451 27,800 -1,740 Descending Fort Worth Center
06:47PM 33.9983 -95.1436 252° West 398 458 26,100 -1,740 Descending Fort Worth Center
06:48PM 33.9653 -95.2672 252° West 398 458 24,400 -1,080 Descending Fort Worth Center
06:49PM 33.9297 -95.3908 251° West 398 458 24,000 -540 Descending Fort Worth Center
06:50PM 33.8939 -95.5142 251° West 398 458 23,400 -1,020 Descending Fort Worth Center
06:51PM 33.8603 -95.6350 252° West 392 451 22,000 -1,560 Descending Fort Worth Center
06:52PM 33.8242 -95.7483 249° West 381 438 20,300 -1,560 Descending Fort Worth Center
06:53PM 33.7775 -95.8542 242° Southwest 364 419 18,900 -1,380 Descending Fort Worth Center
06:54PM 33.7331 -95.9597 243° Southwest 364 419 17,600 -1,800 Descending Fort Worth Center
06:55PM 33.6842 -96.0731 243° Southwest 358 412 15,400 -1,860 Descending Fort Worth Center
06:56PM 33.6414 -96.1658 241° Southwest 351 404 13,900 -1,680 Descending Fort Worth Center
06:57PM 33.5964 -96.2689 242° Southwest 339 390 12,100 -1,560 Descending Fort Worth Center
06:58PM 33.5594 -96.3542 243° Southwest 327 376 10,800 -1,500 Descending Fort Worth Center
06:59PM 33.5144 -96.4542 242° Southwest 327 376 9,200 -900 Descending Fort Worth Center
07:00PM 33.4817 -96.5294 242° Southwest 297 342 9,000 -120 Descending Fort Worth Center
07:01PM 33.4383 -96.6094 237° Southwest 289 333 9,000 -60 Level Fort Worth Center
07:02PM 33.3761 -96.6822 224° Southwest 289 333 8,900 -900 Descending Fort Worth Center
07:03PM 33.3681 -96.7642 263° West 268 308 7,200 -1,680 Descending Fort Worth Center
07:04PM 33.3581 -96.8589 263° West 268 308 5,600 -1,560 Descending Fort Worth Center
07:05PM 33.3439 -96.9286 256° West 252 290 4,100 -840 Descending Fort Worth Center
07:06PM 33.2814 -96.9936 221° Southwest 277 319 4,000 -120 Descending Fort Worth Center
07:07PM 33.2253 -97.0433 217° Southwest 277 319 3,900  Descending Fort Worth Center
07:08PM 33.1608 -97.1058 219° Southwest 277 319 4,000  Climbing Fort Worth Center
07:09PM 33.1025 -97.1581 217° Southwest 284 327 4,000  Level Fort Worth Center
07:10PM 33.0358 -97.2203 218° Southwest 284 327 4,000 -180 Level Fort Worth Center
07:11PM 32.9772 -97.2600 210° Southwest 284 327 3,700 -420 Descending Fort Worth Center
07:13PM 32.8000 -97.2667 182° South 232 267 2,700 -360 Descending Dallas / Fort Worth TRACON
07:14PM 32.7333 -97.2667 180° South 231 266 2,600  Descending Dallas / Fort Worth TRACON
07:15PM 32.6667 -97.2667 180° South 241 277 2,800 -180 Climbing Dallas / Fort Worth TRACON
07:16PM 32.6667 -97.3167 270° West 147 169 2,300 -240 Descending Dallas / Fort Worth TRACON
07:17PM 32.7000 -97.3333 337° Northwest 165 190 2,400 -120 Climbing Dallas / Fort Worth TRACON
07:18PM 32.7500 -97.3500 344° North 137 158 2,100 -300 Descending Dallas / Fort Worth TRACON